sensor_id;sensor_type;location;lat;lon;timestamp;pressure;altitude;pressure_sealevel;temperature;humidity
32761;BME280;19126;47.472;7.850;2023-04-06T00:01:13;96821.09;;;-0.91;100.00
32761;BME280;19126;47.472;7.850;2023-04-06T00:03:41;96816.22;;;-0.96;100.00
32761;BME280;19126;47.472;7.850;2023-04-06T00:06:09;96814.97;;;-1.03;100.00
32761;BME280;19126;47.472;7.850;2023-04-06T00:08:36;96816.28;;;-1.10;100.00
32761;BME280;19126;47.472;7.850;2023-04-06T00:11:04;96806.44;;;-1.18;100.00
32761;BME280;19126;47.472;7.850;2023-04-06T00:13:31;96810.78;;;-1.19;100.00
32761;BME280;19126;47.472;7.850;2023-04-06T00:15:58;96795.88;;;-1.28;100.00
32761;BME280;19126;47.472;7.850;2023-04-06T00:18:26;96813.09;;;-1.28;100.00
32761;BME280;19126;47.472;7.850;2023-04-06T00:20:57;96803.25;;;-1.36;100.00
32761;BME280;19126;47.472;7.850;2023-04-06T00:23:25;96806.13;;;-1.41;100.00
32761;BME280;19126;47.472;7.850;2023-04-06T00:25:52;96807.31;;;-1.47;100.00
32761;BME280;19126;47.472;7.850;2023-04-06T00:28:19;96805.28;;;-1.41;100.00
32761;BME280;19126;47.472;7.850;2023-04-06T00:30:51;96804.47;;;-1.42;100.00
32761;BME280;19126;47.472;7.850;2023-04-06T00:33:21;96808.03;;;-1.44;100.00
32761;BME280;19126;47.472;7.850;2023-04-06T00:35:49;96800.22;;;-1.43;100.00
32761;BME280;19126;47.472;7.850;2023-04-06T00:38:18;96790.31;;;-1.49;100.00
32761;BME280;19126;47.472;7.850;2023-04-06T00:40:45;96795.53;;;-1.51;100.00
32761;BME280;19126;47.472;7.850;2023-04-06T00:43:14;96798.84;;;-1.49;100.00
32761;BME280;19126;47.472;7.850;2023-04-06T00:45:42;96795.28;;;-1.46;100.00
32761;BME280;19126;47.472;7.850;2023-04-06T00:48:09;96793.63;;;-1.47;100.00
32761;BME280;19126;47.472;7.850;2023-04-06T00:50:37;96789.56;;;-1.51;100.00
32761;BME280;19126;47.472;7.850;2023-04-06T00:53:05;96796.19;;;-1.47;100.00
32761;BME280;19126;47.472;7.850;2023-04-06T00:55:34;96784.81;;;-1.57;100.00
32761;BME280;19126;47.472;7.850;2023-04-06T00:58:02;96788.84;;;-1.53;100.00
32761;BME280;19126;47.472;7.850;2023-04-06T01:00:29;96778.44;;;-1.66;100.00
32761;BME280;19126;47.472;7.850;2023-04-06T01:02:57;96776.41;;;-1.61;100.00
32761;BME280;19126;47.472;7.850;2023-04-06T01:05:24;96782.69;;;-1.65;100.00
32761;BME280;19126;47.472;7.850;2023-04-06T01:07:51;96773.59;;;-1.71;100.00
32761;BME280;19126;47.472;7.850;2023-04-06T01:10:25;96772.22;;;-1.77;100.00
32761;BME280;19126;47.472;7.850;2023-04-06T01:12:54;96777.16;;;-1.73;100.00
32761;BME280;19126;47.472;7.850;2023-04-06T01:15:22;96781.22;;;-1.69;100.00
32761;BME280;19126;47.472;7.850;2023-04-06T01:17:50;96783.16;;;-1.73;100.00
32761;BME280;19126;47.472;7.850;2023-04-06T01:20:18;96771.09;;;-1.72;100.00
32761;BME280;19126;47.472;7.850;2023-04-06T01:22:50;96768.34;;;-1.69;100.00
32761;BME280;19126;47.472;7.850;2023-04-06T01:25:17;96774.88;;;-1.78;100.00
32761;BME280;19126;47.472;7.850;2023-04-06T01:27:45;96763.38;;;-1.87;100.00
32761;BME280;19126;47.472;7.850;2023-04-06T01:30:13;96771.41;;;-1.92;100.00
32761;BME280;19126;47.472;7.850;2023-04-06T01:32:40;96765.88;;;-2.00;100.00
32761;BME280;19126;47.472;7.850;2023-04-06T01:35:11;96760.75;;;-2.00;100.00
32761;BME280;19126;47.472;7.850;2023-04-06T01:37:38;96758.97;;;-1.99;100.00
32761;BME280;19126;47.472;7.850;2023-04-06T01:40:09;96757.06;;;-1.96;100.00
32761;BME280;19126;47.472;7.850;2023-04-06T01:42:37;96757.06;;;-1.96;100.00
32761;BME280;19126;47.472;7.850;2023-04-06T01:45:06;96756.41;;;-1.99;100.00
32761;BME280;19126;47.472;7.850;2023-04-06T01:47:33;96744.63;;;-2.03;100.00
32761;BME280;19126;47.472;7.850;2023-04-06T01:50:00;96752.66;;;-2.08;100.00
32761;BME280;19126;47.472;7.850;2023-04-06T01:52:31;96746.78;;;-2.10;100.00
32761;BME280;19126;47.472;7.850;2023-04-06T01:55:00;96747.31;;;-2.05;100.00
32761;BME280;19126;47.472;7.850;2023-04-06T01:57:29;96756.88;;;-2.07;100.00
32761;BME280;19126;47.472;7.850;2023-04-06T01:59:56;96743.09;;;-2.06;100.00
32761;BME280;19126;47.472;7.850;2023-04-06T02:02:24;96737.28;;;-2.10;100.00
32761;BME280;19126;47.472;7.850;2023-04-06T02:04:54;96751.63;;;-2.06;100.00
32761;BME280;19126;47.472;7.850;2023-04-06T02:07:21;96742.63;;;-2.13;100.00
32761;BME280;19126;47.472;7.850;2023-04-06T02:09:50;96749.41;;;-2.12;100.00
32761;BME280;19126;47.472;7.850;2023-04-06T02:12:18;96749.97;;;-2.21;100.00
32761;BME280;19126;47.472;7.850;2023-04-06T02:14:48;96752.34;;;-2.32;100.00
32761;BME280;19126;47.472;7.850;2023-04-06T02:17:15;96749.78;;;-2.32;100.00
32761;BME280;19126;47.472;7.850;2023-04-06T02:19:43;96733.91;;;-2.39;100.00
32761;BME280;19126;47.472;7.850;2023-04-06T02:22:10;96746.22;;;-2.30;100.00
32761;BME280;19126;47.472;7.850;2023-04-06T02:24:37;96740.69;;;-2.38;100.00
32761;BME280;19126;47.472;7.850;2023-04-06T02:27:05;96741.88;;;-2.44;100.00
32761;BME280;19126;47.472;7.850;2023-04-06T02:29:32;96745.91;;;-2.40;100.00
32761;BME280;19126;47.472;7.850;2023-04-06T02:32:01;96743.72;;;-2.46;100.00
32761;BME280;19126;47.472;7.850;2023-04-06T02:34:28;96737.47;;;-2.42;100.00
32761;BME280;19126;47.472;7.850;2023-04-06T02:36:56;96741.97;;;-2.45;100.00
32761;BME280;19126;47.472;7.850;2023-04-06T02:39:23;96737.38;;;-2.55;100.00
32761;BME280;19126;47.472;7.850;2023-04-06T02:41:50;96733.50;;;-2.62;100.00
32761;BME280;19126;47.472;7.850;2023-04-06T02:44:18;96731.13;;;-2.65;100.00
32761;BME280;19126;47.472;7.850;2023-04-06T02:46:45;96732.91;;;-2.67;100.00
32761;BME280;19126;47.472;7.850;2023-04-06T02:49:14;96734.75;;;-2.69;100.00
32761;BME280;19126;47.472;7.850;2023-04-06T02:51:41;96728.44;;;-2.63;100.00
32761;BME280;19126;47.472;7.850;2023-04-06T02:54:09;96739.56;;;-2.63;100.00
32761;BME280;19126;47.472;7.850;2023-04-06T02:56:36;96734.50;;;-2.65;100.00
32761;BME280;19126;47.472;7.850;2023-04-06T02:59:03;96732.28;;;-2.71;100.00
32761;BME280;19126;47.472;7.850;2023-04-06T03:01:31;96742.63;;;-2.72;100.00
32761;BME280;19126;47.472;7.850;2023-04-06T03:03:58;96738.06;;;-2.67;100.00
32761;BME280;19126;47.472;7.850;2023-04-06T03:06:27;96728.97;;;-2.73;100.00
32761;BME280;19126;47.472;7.850;2023-04-06T03:08:54;96731.06;;;-2.80;100.00
32761;BME280;19126;47.472;7.850;2023-04-06T03:11:25;96725.44;;;-2.86;100.00
32761;BME280;19126;47.472;7.850;2023-04-06T03:13:52;96724.97;;;-2.93;100.00
32761;BME280;19126;47.472;7.850;2023-04-06T03:16:22;96732.50;;;-2.90;100.00
32761;BME280;19126;47.472;7.850;2023-04-06T03:18:49;96729.69;;;-2.85;100.00
32761;BME280;19126;47.472;7.850;2023-04-06T03:21:16;96727.91;;;-2.85;100.00
32761;BME280;19126;47.472;7.850;2023-04-06T03:23:46;96728.75;;;-2.84;100.00
32761;BME280;19126;47.472;7.850;2023-04-06T03:26:15;96734.25;;;-2.90;100.00
32761;BME280;19126;47.472;7.850;2023-04-06T03:28:42;96731.69;;;-2.90;100.00
32761;BME280;19126;47.472;7.850;2023-04-06T03:31:10;96730.19;;;-2.95;100.00
32761;BME280;19126;47.472;7.850;2023-04-06T03:33:37;96729.53;;;-2.98;100.00
32761;BME280;19126;47.472;7.850;2023-04-06T03:36:06;96736.69;;;-3.03;100.00
32761;BME280;19126;47.472;7.850;2023-04-06T03:38:33;96734.09;;;-3.03;100.00
32761;BME280;19126;47.472;7.850;2023-04-06T03:41:02;96737.53;;;-3.03;100.00
32761;BME280;19126;47.472;7.850;2023-04-06T03:43:29;96736.69;;;-3.03;100.00
32761;BME280;19126;47.472;7.850;2023-04-06T03:45:57;96735.75;;;-3.02;100.00
32761;BME280;19126;47.472;7.850;2023-04-06T03:48:24;96736.28;;;-3.12;100.00
32761;BME280;19126;47.472;7.850;2023-04-06T03:50:51;96733.53;;;-3.09;100.00
32761;BME280;19126;47.472;7.850;2023-04-06T03:53:19;96738.03;;;-3.12;100.00
32761;BME280;19126;47.472;7.850;2023-04-06T03:55:46;96732.22;;;-3.16;100.00
32761;BME280;19126;47.472;7.850;2023-04-06T03:58:15;96740.38;;;-3.24;100.00
32761;BME280;19126;47.472;7.850;2023-04-06T04:00:43;96745.06;;;-3.16;100.00
32761;BME280;19126;47.472;7.850;2023-04-06T04:03:10;96740.50;;;-3.11;100.00
32761;BME280;19126;47.472;7.850;2023-04-06T04:05:37;96748.50;;;-3.15;100.00
32761;BME280;19126;47.472;7.850;2023-04-06T04:08:04;96750.22;;;-3.16;100.00
32761;BME280;19126;47.472;7.850;2023-04-06T04:10:32;96746.09;;;-3.18;100.00
32761;BME280;19126;47.472;7.850;2023-04-06T04:12:59;96743.94;;;-3.26;100.00
32761;BME280;19126;47.472;7.850;2023-04-06T04:15:28;96752.38;;;-3.24;100.00
32761;BME280;19126;47.472;7.850;2023-04-06T04:17:56;96752.50;;;-3.26;100.00
32761;BME280;19126;47.472;7.850;2023-04-06T04:20:23;96751.56;;;-3.25;100.00
32761;BME280;19126;47.472;7.850;2023-04-06T04:22:51;96754.72;;;-3.19;100.00
32761;BME280;19126;47.472;7.850;2023-04-06T04:25:18;96753.63;;;-3.15;100.00
32761;BME280;19126;47.472;7.850;2023-04-06T04:27:46;96758.09;;;-3.19;100.00
32761;BME280;19126;47.472;7.850;2023-04-06T04:30:13;96762.41;;;-3.19;100.00
32761;BME280;19126;47.472;7.850;2023-04-06T04:32:42;96765.00;;;-3.19;100.00
32761;BME280;19126;47.472;7.850;2023-04-06T04:35:10;96766.31;;;-3.28;100.00
32761;BME280;19126;47.472;7.850;2023-04-06T04:37:40;96768.31;;;-3.33;100.00
32761;BME280;19126;47.472;7.850;2023-04-06T04:40:09;96771.03;;;-3.36;100.00
32761;BME280;19126;47.472;7.850;2023-04-06T04:42:36;96765.75;;;-3.33;100.00
32761;BME280;19126;47.472;7.850;2023-04-06T04:45:05;96761.84;;;-3.41;100.00
32761;BME280;19126;47.472;7.850;2023-04-06T04:47:32;96769.72;;;-3.44;100.00
32761;BME280;19126;47.472;7.850;2023-04-06T04:50:01;96765.34;;;-3.42;100.00
32761;BME280;19126;47.472;7.850;2023-04-06T04:52:29;96772.13;;;-3.41;100.00
32761;BME280;19126;47.472;7.850;2023-04-06T04:54:56;96775.03;;;-3.47;100.00
32761;BME280;19126;47.472;7.850;2023-04-06T04:57:26;96773.88;;;-3.41;100.00
32761;BME280;19126;47.472;7.850;2023-04-06T04:59:53;96776.78;;;-3.47;100.00
32761;BME280;19126;47.472;7.850;2023-04-06T05:02:21;96776.03;;;-3.49;100.00
32761;BME280;19126;47.472;7.850;2023-04-06T05:04:48;96777.34;;;-3.42;100.00
32761;BME280;19126;47.472;7.850;2023-04-06T05:07:17;96783.75;;;-3.49;100.00
32761;BME280;19126;47.472;7.850;2023-04-06T05:09:46;96783.63;;;-3.48;100.00
32761;BME280;19126;47.472;7.850;2023-04-06T05:12:14;96790.53;;;-3.48;100.00
32761;BME280;19126;47.472;7.850;2023-04-06T05:14:41;96784.38;;;-3.46;100.00
32761;BME280;19126;47.472;7.850;2023-04-06T05:17:09;96786.31;;;-3.49;100.00
32761;BME280;19126;47.472;7.850;2023-04-06T05:19:36;96794.66;;;-3.46;100.00
32761;BME280;19126;47.472;7.850;2023-04-06T05:22:03;96789.47;;;-3.44;100.00
32761;BME280;19126;47.472;7.850;2023-04-06T05:24:32;96792.78;;;-3.42;100.00
32761;BME280;19126;47.472;7.850;2023-04-06T05:27:01;96798.81;;;-3.43;100.00
32761;BME280;19126;47.472;7.850;2023-04-06T05:29:29;96799.91;;;-3.47;100.00
32761;BME280;19126;47.472;7.850;2023-04-06T05:31:56;96801.72;;;-3.49;100.00
32761;BME280;19126;47.472;7.850;2023-04-06T05:34:24;96798.88;;;-3.45;100.00
32761;BME280;19126;47.472;7.850;2023-04-06T05:36:51;96805.69;;;-3.44;100.00
32761;BME280;19126;47.472;7.850;2023-04-06T05:39:18;96798.50;;;-3.37;100.00
32761;BME280;19126;47.472;7.850;2023-04-06T05:41:48;96806.84;;;-3.33;100.00
32761;BME280;19126;47.472;7.850;2023-04-06T05:44:15;96810.16;;;-3.31;100.00
32761;BME280;19126;47.472;7.850;2023-04-06T05:46:42;96798.63;;;-3.24;100.00
32761;BME280;19126;47.472;7.850;2023-04-06T05:49:10;96812.06;;;-3.19;100.00
32761;BME280;19126;47.472;7.850;2023-04-06T05:51:38;96810.63;;;-3.09;100.00
32761;BME280;19126;47.472;7.850;2023-04-06T05:54:05;96813.13;;;-3.07;100.00
32761;BME280;19126;47.472;7.850;2023-04-06T05:56:32;96805.66;;;-2.96;100.00
32761;BME280;19126;47.472;7.850;2023-04-06T05:59:01;96811.63;;;-2.95;100.00
32761;BME280;19126;47.472;7.850;2023-04-06T06:01:28;96807.13;;;-2.91;100.00
32761;BME280;19126;47.472;7.850;2023-04-06T06:03:56;96809.63;;;-2.90;100.00
32761;BME280;19126;47.472;7.850;2023-04-06T06:06:23;96816.16;;;-2.84;100.00
32761;BME280;19126;47.472;7.850;2023-04-06T06:08:50;96815.09;;;-2.80;100.00
32761;BME280;19126;47.472;7.850;2023-04-06T06:11:18;96818.13;;;-2.73;100.00
32761;BME280;19126;47.472;7.850;2023-04-06T06:13:45;96816.44;;;-2.58;100.00
32761;BME280;19126;47.472;7.850;2023-04-06T06:16:14;96820.56;;;-2.25;100.00
32761;BME280;19126;47.472;7.850;2023-04-06T06:18:42;96821.78;;;-1.87;100.00
32761;BME280;19126;47.472;7.850;2023-04-06T06:21:09;96814.97;;;-1.45;100.00
32761;BME280;19126;47.472;7.850;2023-04-06T06:23:37;96822.81;;;-0.64;100.00
32761;BME280;19126;47.472;7.850;2023-04-06T06:26:05;96822.94;;;0.13;100.00
32761;BME280;19126;47.472;7.850;2023-04-06T06:28:32;96826.88;;;0.69;100.00
32761;BME280;19126;47.472;7.850;2023-04-06T06:31:00;96815.28;;;1.24;100.00
32761;BME280;19126;47.472;7.850;2023-04-06T06:33:28;96823.25;;;1.69;100.00
32761;BME280;19126;47.472;7.850;2023-04-06T06:35:56;96825.91;;;2.03;100.00
32761;BME280;19126;47.472;7.850;2023-04-06T06:38:23;96827.59;;;2.39;100.00
32761;BME280;19126;47.472;7.850;2023-04-06T06:40:51;96835.81;;;2.78;100.00
32761;BME280;19126;47.472;7.850;2023-04-06T06:43:18;96826.06;;;3.14;98.74
32761;BME280;19126;47.472;7.850;2023-04-06T06:45:45;96829.06;;;3.63;96.91
32761;BME280;19126;47.472;7.850;2023-04-06T06:48:13;96826.22;;;4.09;91.84
32761;BME280;19126;47.472;7.850;2023-04-06T06:50:42;96825.88;;;4.45;86.18
32761;BME280;19126;47.472;7.850;2023-04-06T06:53:10;96819.78;;;4.34;80.24
32761;BME280;19126;47.472;7.850;2023-04-06T06:55:37;96834.63;;;4.22;76.01
32761;BME280;19126;47.472;7.850;2023-04-06T06:58:04;96831.31;;;4.10;75.81
32761;BME280;19126;47.472;7.850;2023-04-06T07:00:32;96837.66;;;4.18;74.67
32761;BME280;19126;47.472;7.850;2023-04-06T07:03:00;96826.47;;;4.27;74.20
32761;BME280;19126;47.472;7.850;2023-04-06T07:05:27;96830.13;;;4.46;73.86
32761;BME280;19126;47.472;7.850;2023-04-06T07:07:56;96824.97;;;4.65;73.90
32761;BME280;19126;47.472;7.850;2023-04-06T07:10:24;96829.28;;;4.86;69.36
32761;BME280;19126;47.472;7.850;2023-04-06T07:12:51;96828.94;;;5.20;70.16
32761;BME280;19126;47.472;7.850;2023-04-06T07:15:21;96829.09;;;5.68;69.04
32761;BME280;19126;47.472;7.850;2023-04-06T07:17:49;96832.94;;;5.74;67.46
32761;BME280;19126;47.472;7.850;2023-04-06T07:20:18;96827.72;;;5.83;65.85
32761;BME280;19126;47.472;7.850;2023-04-06T07:22:48;96829.22;;;5.86;63.22
32761;BME280;19126;47.472;7.850;2023-04-06T07:25:17;96830.44;;;5.92;63.63
32761;BME280;19126;47.472;7.850;2023-04-06T07:27:47;96836.34;;;5.94;63.28
32761;BME280;19126;47.472;7.850;2023-04-06T07:30:15;96837.72;;;5.98;63.78
32761;BME280;19126;47.472;7.850;2023-04-06T07:32:42;96833.88;;;6.02;62.39
32761;BME280;19126;47.472;7.850;2023-04-06T07:35:09;96835.25;;;5.96;61.42
32761;BME280;19126;47.472;7.850;2023-04-06T07:37:36;96833.03;;;6.21;62.42
32761;BME280;19126;47.472;7.850;2023-04-06T07:40:05;96829.69;;;6.39;62.37
32761;BME280;19126;47.472;7.850;2023-04-06T07:42:35;96828.50;;;6.61;62.51
32761;BME280;19126;47.472;7.850;2023-04-06T07:45:03;96829.81;;;6.75;62.38
32761;BME280;19126;47.472;7.850;2023-04-06T07:47:31;96825.25;;;7.05;62.93
32761;BME280;19126;47.472;7.850;2023-04-06T07:50:01;96827.31;;;7.29;61.72
32761;BME280;19126;47.472;7.850;2023-04-06T07:52:28;96824.91;;;7.90;62.46
32761;BME280;19126;47.472;7.850;2023-04-06T07:54:57;96814.81;;;8.22;61.87
32761;BME280;19126;47.472;7.850;2023-04-06T07:57:25;96823.94;;;8.18;60.14
32761;BME280;19126;47.472;7.850;2023-04-06T07:59:53;96813.59;;;8.69;62.17
32761;BME280;19126;47.472;7.850;2023-04-06T08:02:21;96815.97;;;8.97;60.28
32761;BME280;19126;47.472;7.850;2023-04-06T08:04:48;96816.00;;;9.05;58.19
32761;BME280;19126;47.472;7.850;2023-04-06T08:07:18;96813.75;;;9.27;58.33
32761;BME280;19126;47.472;7.850;2023-04-06T08:09:46;96815.28;;;9.55;54.61
32761;BME280;19126;47.472;7.850;2023-04-06T08:12:16;96818.25;;;9.51;53.13
32761;BME280;19126;47.472;7.850;2023-04-06T08:14:47;96822.03;;;9.90;53.51
32761;BME280;19126;47.472;7.850;2023-04-06T08:17:16;96820.50;;;10.12;52.41
32761;BME280;19126;47.472;7.850;2023-04-06T08:19:45;96813.84;;;9.85;51.27
32761;BME280;19126;47.472;7.850;2023-04-06T08:22:13;96824.06;;;10.53;51.27
32761;BME280;19126;47.472;7.850;2023-04-06T08:24:40;96825.06;;;10.52;49.77
32761;BME280;19126;47.472;7.850;2023-04-06T08:27:08;96823.00;;;10.87;49.31
32761;BME280;19126;47.472;7.850;2023-04-06T08:29:35;96831.16;;;11.01;46.17
32761;BME280;19126;47.472;7.850;2023-04-06T08:32:05;96830.56;;;11.13;45.55
32761;BME280;19126;47.472;7.850;2023-04-06T08:34:34;96830.38;;;11.23;44.81
32761;BME280;19126;47.472;7.850;2023-04-06T08:37:01;96827.81;;;11.38;43.73
32761;BME280;19126;47.472;7.850;2023-04-06T08:39:28;96827.81;;;11.62;45.01
32761;BME280;19126;47.472;7.850;2023-04-06T08:41:56;96823.50;;;11.69;44.58
32761;BME280;19126;47.472;7.850;2023-04-06T08:44:26;96829.72;;;12.14;45.60
32761;BME280;19126;47.472;7.850;2023-04-06T08:46:56;96823.31;;;12.62;44.99
32761;BME280;19126;47.472;7.850;2023-04-06T08:49:24;96826.59;;;12.79;42.94
32761;BME280;19126;47.472;7.850;2023-04-06T08:51:53;96829.03;;;12.36;41.27
32761;BME280;19126;47.472;7.850;2023-04-06T08:54:21;96824.22;;;12.24;42.36
32761;BME280;19126;47.472;7.850;2023-04-06T08:56:48;96825.59;;;12.65;43.60
32761;BME280;19126;47.472;7.850;2023-04-06T08:59:16;96819.97;;;12.53;41.88
32761;BME280;19126;47.472;7.850;2023-04-06T09:01:45;96823.84;;;12.27;41.96
32761;BME280;19126;47.472;7.850;2023-04-06T09:04:13;96832.28;;;12.23;42.38
32761;BME280;19126;47.472;7.850;2023-04-06T09:06:43;96823.31;;;12.47;42.23
32761;BME280;19126;47.472;7.850;2023-04-06T09:09:11;96818.50;;;12.81;42.93
32761;BME280;19126;47.472;7.850;2023-04-06T09:11:47;96827.13;;;12.89;42.10
32761;BME280;19126;47.472;7.850;2023-04-06T09:14:15;96824.91;;;13.08;42.70
32761;BME280;19126;47.472;7.850;2023-04-06T09:16:46;96820.69;;;13.44;43.63
32761;BME280;19126;47.472;7.850;2023-04-06T09:19:13;96824.00;;;13.53;41.60
32761;BME280;19126;47.472;7.850;2023-04-06T09:21:41;96820.59;;;13.81;42.26
32761;BME280;19126;47.472;7.850;2023-04-06T09:24:08;96823.66;;;14.06;42.88
32761;BME280;19126;47.472;7.850;2023-04-06T09:26:47;96820.97;;;14.28;41.75
32761;BME280;19126;47.472;7.850;2023-04-06T09:29:23;96829.22;;;14.46;40.64
32761;BME280;19126;47.472;7.850;2023-04-06T09:31:52;96828.25;;;14.54;42.35
32761;BME280;19126;47.472;7.850;2023-04-06T09:34:28;96826.84;;;14.87;42.30
32761;BME280;19126;47.472;7.850;2023-04-06T09:36:56;96827.13;;;15.05;41.10
32761;BME280;19126;47.472;7.850;2023-04-06T09:39:24;96824.88;;;14.67;39.33
32761;BME280;19126;47.472;7.850;2023-04-06T09:41:53;96820.78;;;14.29;39.38
32761;BME280;19126;47.472;7.850;2023-04-06T09:44:22;96816.66;;;13.91;39.28
32761;BME280;19126;47.472;7.850;2023-04-06T09:46:53;96818.31;;;13.99;39.94
32761;BME280;19126;47.472;7.850;2023-04-06T09:49:23;96816.50;;;14.00;40.98
32761;BME280;19126;47.472;7.850;2023-04-06T09:51:56;96819.81;;;14.09;43.23
32761;BME280;19126;47.472;7.850;2023-04-06T09:54:29;96811.28;;;13.85;40.31
32761;BME280;19126;47.472;7.850;2023-04-06T09:57:07;96814.28;;;13.53;39.31
32761;BME280;19126;47.472;7.850;2023-04-06T09:59:42;96813.56;;;13.66;38.80
32761;BME280;19126;47.472;7.850;2023-04-06T10:02:20;96809.53;;;13.92;39.60
32761;BME280;19126;47.472;7.850;2023-04-06T10:04:56;96809.84;;;14.04;41.01
32761;BME280;19126;47.472;7.850;2023-04-06T10:07:24;96808.41;;;14.36;43.44
32761;BME280;19126;47.472;7.850;2023-04-06T10:09:54;96806.09;;;14.55;41.24
32761;BME280;19126;47.472;7.850;2023-04-06T10:12:23;96809.34;;;14.50;39.74
32761;BME280;19126;47.472;7.850;2023-04-06T10:14:51;96811.03;;;14.65;41.56
32761;BME280;19126;47.472;7.850;2023-04-06T10:17:18;96809.72;;;14.83;41.10
32761;BME280;19126;47.472;7.850;2023-04-06T10:19:52;96804.31;;;15.04;38.91
32761;BME280;19126;47.472;7.850;2023-04-06T10:22:32;96802.47;;;14.98;39.83
32761;BME280;19126;47.472;7.850;2023-04-06T10:25:02;96803.09;;;15.00;39.36
32761;BME280;19126;47.472;7.850;2023-04-06T10:27:33;96802.34;;;15.20;39.96
32761;BME280;19126;47.472;7.850;2023-04-06T10:30:04;96806.06;;;15.39;39.53
32761;BME280;19126;47.472;7.850;2023-04-06T10:32:33;96806.88;;;15.33;37.08
32761;BME280;19126;47.472;7.850;2023-04-06T10:35:12;96805.41;;;15.23;35.10
32761;BME280;19126;47.472;7.850;2023-04-06T10:38:03;96802.19;;;15.42;37.90
32761;BME280;19126;47.472;7.850;2023-04-06T10:40:30;96799.97;;;15.65;36.43
32761;BME280;19126;47.472;7.850;2023-04-06T10:43:10;96807.88;;;15.32;35.67
32761;BME280;19126;47.472;7.850;2023-04-06T10:45:39;96800.38;;;15.42;36.14
32761;BME280;19126;47.472;7.850;2023-04-06T10:48:16;96797.41;;;15.03;35.20
32761;BME280;19126;47.472;7.850;2023-04-06T10:50:47;96789.03;;;14.93;35.37
32761;BME280;19126;47.472;7.850;2023-04-06T10:53:22;96788.59;;;14.54;35.79
32761;BME280;19126;47.472;7.850;2023-04-06T10:55:50;96798.25;;;14.69;39.25
32761;BME280;19126;47.472;7.850;2023-04-06T10:58:19;96799.31;;;14.74;36.83
32761;BME280;19126;47.472;7.850;2023-04-06T11:00:48;96790.88;;;14.99;35.78
32761;BME280;19126;47.472;7.850;2023-04-06T11:03:17;96788.22;;;14.99;34.64
32761;BME280;19126;47.472;7.850;2023-04-06T11:05:45;96791.63;;;14.79;33.89
32761;BME280;19126;47.472;7.850;2023-04-06T11:08:24;96788.06;;;15.07;37.85
32761;BME280;19126;47.472;7.850;2023-04-06T11:10:52;96785.25;;;15.22;37.62
32761;BME280;19126;47.472;7.850;2023-04-06T11:13:20;96782.59;;;15.09;33.98
32761;BME280;19126;47.472;7.850;2023-04-06T11:15:48;96776.44;;;15.02;33.66
32761;BME280;19126;47.472;7.850;2023-04-06T11:18:17;96786.19;;;14.94;33.92
32761;BME280;19126;47.472;7.850;2023-04-06T11:20:48;96782.44;;;14.75;33.14
32761;BME280;19126;47.472;7.850;2023-04-06T11:23:23;96777.25;;;14.96;34.86
32761;BME280;19126;47.472;7.850;2023-04-06T11:25:51;96775.72;;;14.73;34.43
32761;BME280;19126;47.472;7.850;2023-04-06T11:28:20;96770.09;;;14.54;34.41
32761;BME280;19126;47.472;7.850;2023-04-06T11:30:48;96767.59;;;14.74;36.93
32761;BME280;19126;47.472;7.850;2023-04-06T11:33:20;96759.41;;;14.69;35.43
32761;BME280;19126;47.472;7.850;2023-04-06T11:35:48;96766.53;;;14.69;34.88
32761;BME280;19126;47.472;7.850;2023-04-06T11:38:18;96768.47;;;14.95;36.09
32761;BME280;19126;47.472;7.850;2023-04-06T11:40:46;96768.78;;;15.27;37.47
32761;BME280;19126;47.472;7.850;2023-04-06T11:43:15;96753.91;;;15.26;36.04
32761;BME280;19126;47.472;7.850;2023-04-06T11:45:44;96756.47;;;14.92;35.66
32761;BME280;19126;47.472;7.850;2023-04-06T11:48:19;96754.31;;;15.16;36.96
32761;BME280;19126;47.472;7.850;2023-04-06T11:50:54;96745.53;;;15.16;35.87
32761;BME280;19126;47.472;7.850;2023-04-06T11:53:24;96752.81;;;14.93;36.09
32761;BME280;19126;47.472;7.850;2023-04-06T11:55:52;96740.25;;;15.09;37.80
32761;BME280;19126;47.472;7.850;2023-04-06T11:58:19;96751.03;;;15.21;37.24
32761;BME280;19126;47.472;7.850;2023-04-06T12:00:48;96739.66;;;15.27;38.24
32761;BME280;19126;47.472;7.850;2023-04-06T12:03:18;96744.94;;;15.27;35.29
32761;BME280;19126;47.472;7.850;2023-04-06T12:05:46;96728.28;;;15.27;35.30
32761;BME280;19126;47.472;7.850;2023-04-06T12:08:13;96738.97;;;14.91;35.60
32761;BME280;19126;47.472;7.850;2023-04-06T12:10:41;96741.53;;;14.71;36.08
32761;BME280;19126;47.472;7.850;2023-04-06T12:13:08;96730.50;;;14.61;36.06
32761;BME280;19126;47.472;7.850;2023-04-06T12:15:35;96742.06;;;14.60;37.68
32761;BME280;19126;47.472;7.850;2023-04-06T12:18:04;96742.81;;;14.82;39.40
32761;BME280;19126;47.472;7.850;2023-04-06T12:20:32;96737.13;;;14.92;39.94
32761;BME280;19126;47.472;7.850;2023-04-06T12:23:00;96740.34;;;14.80;41.37
32761;BME280;19126;47.472;7.850;2023-04-06T12:25:27;96737.69;;;14.74;39.63
32761;BME280;19126;47.472;7.850;2023-04-06T12:27:54;96731.53;;;14.67;39.09
32761;BME280;19126;47.472;7.850;2023-04-06T12:30:22;96728.28;;;14.64;40.23
32761;BME280;19126;47.472;7.850;2023-04-06T12:32:50;96728.28;;;14.29;39.30
32761;BME280;19126;47.472;7.850;2023-04-06T12:35:19;96722.91;;;14.51;40.64
32761;BME280;19126;47.472;7.850;2023-04-06T12:37:48;96717.56;;;14.73;41.14
32761;BME280;19126;47.472;7.850;2023-04-06T12:40:21;96728.28;;;14.64;42.34
32761;BME280;19126;47.472;7.850;2023-04-06T12:42:48;96730.19;;;14.77;40.09
32761;BME280;19126;47.472;7.850;2023-04-06T12:45:16;96722.06;;;14.79;39.59
32761;BME280;19126;47.472;7.850;2023-04-06T12:47:43;96727.31;;;14.72;41.66
32761;BME280;19126;47.472;7.850;2023-04-06T12:50:11;96721.59;;;14.69;42.05
32761;BME280;19126;47.472;7.850;2023-04-06T12:52:40;96723.25;;;14.76;41.95
32761;BME280;19126;47.472;7.850;2023-04-06T12:55:08;96725.25;;;14.68;42.14
32761;BME280;19126;47.472;7.850;2023-04-06T12:57:36;96724.81;;;14.64;42.62
32761;BME280;19126;47.472;7.850;2023-04-06T13:00:05;96721.75;;;14.67;43.11
32761;BME280;19126;47.472;7.850;2023-04-06T13:02:33;96719.47;;;14.57;41.02
32761;BME280;19126;47.472;7.850;2023-04-06T13:05:00;96722.72;;;14.53;42.48